Time;durP1;ratioP1;P1;durP2;ratioP2;P2;SDS_P1;SDS_P2;PMS_P1;PMS_P2;Temp;Humidity;BMP_temperature;BMP_pressure;BME280_temperature;BME280_humidity;BME280_pressure;Samples;Min_cycle;Max_cycle;Signal;HPM_P1;HPM_P2
2022/03/16 00:01:58;;;;;;;15.43;9.20;;;7.00;99.90;;;;;;4971274;28;20493;-50
2022/03/16 00:04:25;;;;;;;17.67;10.93;;;7.00;99.90;;;;;;4964592;28;20457;-49
2022/03/16 00:06:53;;;;;;;20.37;9.10;;;6.90;99.90;;;;;;4965308;28;20466;-50
2022/03/16 00:09:19;;;;;;;13.27;9.63;;;6.90;99.90;;;;;;4956290;28;20450;-49
2022/03/16 00:11:46;;;;;;;10.67;8.80;;;6.90;99.90;;;;;;4969084;28;20537;-50
2022/03/16 00:14:12;;;;;;;16.50;10.23;;;6.90;99.90;;;;;;4967239;28;20972;-50
2022/03/16 00:16:39;;;;;;;17.87;11.30;;;6.90;99.90;;;;;;4969250;28;20457;-50
2022/03/16 00:19:06;;;;;;;17.70;10.03;;;6.80;99.90;;;;;;4971027;28;20462;-49
2022/03/16 00:21:33;;;;;;;13.57;9.23;;;6.80;99.90;;;;;;4962809;28;20552;-49
2022/03/16 00:24:02;;;;;;;15.47;10.77;;;6.80;99.90;;;;;;4972210;28;20470;-50
2022/03/16 00:26:29;;;;;;;11.90;8.60;;;6.80;99.90;;;;;;4972227;28;20465;-50
2022/03/16 00:28:56;;;;;;;15.13;9.70;;;6.80;99.90;;;;;;4969060;28;20512;-50
2022/03/16 00:31:22;;;;;;;13.87;9.57;;;6.70;99.90;;;;;;4970387;28;20481;-50
2022/03/16 00:33:49;;;;;;;16.27;10.20;;;6.70;99.90;;;;;;4966279;28;20508;-49
2022/03/16 00:36:17;;;;;;;14.00;9.20;;;6.70;99.90;;;;;;4972443;28;20516;-50
2022/03/16 00:38:43;;;;;;;17.30;10.30;;;6.70;99.90;;;;;;4968768;28;20467;-50
2022/03/16 00:41:12;;;;;;;15.37;9.93;;;6.70;99.90;;;;;;4979321;28;20554;-49
2022/03/16 00:43:39;;;;;;;16.30;10.27;;;6.70;99.90;;;;;;4978149;28;20524;-50
2022/03/16 00:46:05;;;;;;;15.77;9.07;;;6.60;99.90;;;;;;4972160;28;20461;-50
2022/03/16 00:48:32;;;;;;;15.23;10.90;;;6.60;99.90;;;;;;4985885;28;20473;-49
2022/03/16 00:50:59;;;;;;;11.47;10.07;;;6.60;99.90;;;;;;4988323;28;20866;-51
2022/03/16 00:53:26;;;;;;;14.87;9.70;;;6.50;99.90;;;;;;4991482;28;20553;-50
2022/03/16 00:55:53;;;;;;;17.23;9.67;;;6.50;99.90;;;;;;4991432;28;20467;-52
2022/03/16 00:58:20;;;;;;;15.43;10.93;;;6.50;99.90;;;;;;4989723;28;20459;-51
2022/03/16 01:00:47;;;;;;;21.23;10.80;;;6.40;99.90;;;;;;4970663;28;20485;-50
2022/03/16 01:03:14;;;;;;;18.33;10.40;;;6.30;99.90;;;;;;4967281;28;20465;-49
2022/03/16 01:05:40;;;;;;;16.83;11.43;;;6.30;99.90;;;;;;4963101;28;20470;-50
2022/03/16 01:08:07;;;;;;;14.90;10.30;;;6.20;98.70;;;;;;4966395;28;20466;-50
2022/03/16 01:10:33;;;;;;;17.30;11.30;;;6.20;91.20;;;;;;4970118;28;20481;-50
2022/03/16 01:13:00;;;;;;;13.77;10.10;;;6.10;88.20;;;;;;4970022;28;20468;-50
2022/03/16 01:15:28;;;;;;;14.13;10.20;;;6.00;83.10;;;;;;4969658;28;20515;-49
2022/03/16 01:17:55;;;;;;;17.43;10.40;;;6.00;78.20;;;;;;4970591;28;21579;-50
2022/03/16 01:20:22;;;;;;;12.10;10.47;;;5.90;74.50;;;;;;4971115;28;20473;-50
2022/03/16 01:22:48;;;;;;;14.90;9.97;;;5.80;73.50;;;;;;4972268;28;20523;-49
2022/03/16 01:25:15;;;;;;;20.07;10.83;;;5.80;71.30;;;;;;4967271;28;20500;-49
2022/03/16 01:27:42;;;;;;;13.13;9.60;;;5.70;66.90;;;;;;4971311;28;20472;-50
2022/03/16 01:30:10;;;;;;;15.53;10.70;;;5.60;61.60;;;;;;4973333;28;20521;-50
2022/03/16 01:32:38;;;;;;;16.70;11.20;;;5.60;58.70;;;;;;4962218;28;20458;-49
2022/03/16 01:35:05;;;;;;;17.47;10.70;;;5.50;57.80;;;;;;4971714;28;20465;-50
2022/03/16 01:37:31;;;;;;;18.00;11.30;;;5.50;50.90;;;;;;4969971;28;20524;-49
2022/03/16 01:39:58;;;;;;;19.87;11.67;;;5.50;49.30;;;;;;4966951;28;20461;-49
2022/03/16 01:42:25;;;;;;;17.87;9.90;;;5.40;46.30;;;;;;4967846;28;20839;-49
2022/03/16 01:44:53;;;;;;;19.93;11.47;;;5.40;48.20;;;;;;4971177;28;20473;-50
2022/03/16 01:47:22;;;;;;;18.30;11.70;;;5.40;49.50;;;;;;4970474;28;20882;-51
2022/03/16 01:49:52;;;;;;;17.30;11.60;;;5.30;49.20;;;;;;4966930;28;20460;-49
2022/03/16 01:52:21;;;;;;;16.07;11.30;;;5.30;49.10;;;;;;5011183;23;20499;-52
2022/03/16 01:54:49;;;;;;;16.77;12.00;;;5.20;52.90;;;;;;5008935;28;21304;-53
2022/03/16 01:57:16;;;;;;;14.63;11.50;;;5.20;51.30;;;;;;5009383;28;21032;-53
2022/03/16 01:59:43;;;;;;;15.70;11.77;;;5.20;44.90;;;;;;5008839;28;20464;-53
2022/03/16 02:02:11;;;;;;;18.53;12.07;;;5.10;45.00;;;;;;5008261;28;20581;-53
2022/03/16 02:04:38;;;;;;;18.40;12.33;;;5.10;47.70;;;;;;5009889;28;20463;-52
2022/03/16 02:07:06;;;;;;;21.53;12.80;;;5.00;39.20;;;;;;5008480;28;20809;-53
2022/03/16 02:09:33;;;;;;;28.33;12.60;;;5.00;39.30;;;;;;5009037;28;20964;-52
2022/03/16 02:12:00;;;;;;;19.40;11.37;;;4.90;35.70;;;;;;5011957;28;20455;-52
2022/03/16 02:14:28;;;;;;;17.60;13.00;;;4.90;26.30;;;;;;5009756;28;20519;-52
2022/03/16 02:16:57;;;;;;;18.00;11.77;;;4.90;27.30;;;;;;5009114;28;20476;-52
2022/03/16 02:19:23;;;;;;;14.03;11.20;;;4.80;23.50;;;;;;5009612;28;20455;-53
2022/03/16 02:21:57;;;;;;;17.40;11.37;;;4.80;91.50;;;;;;5005721;28;20522;-53
2022/03/16 02:24:25;;;;;;;21.40;12.70;;;4.80;80.90;;;;;;5010165;28;20467;-53
2022/03/16 02:26:52;;;;;;;15.90;12.50;;;4.70;23.40;;;;;;5007742;28;20454;-54
2022/03/16 02:29:19;;;;;;;21.57;13.17;;;4.70;28.80;;;;;;5012537;28;20988;-52
2022/03/16 02:31:45;;;;;;;21.40;12.60;;;4.70;21.60;;;;;;5010473;28;20475;-53
2022/03/16 02:34:12;;;;;;;23.83;11.37;;;4.60;20.80;;;;;;5012521;28;20521;-54
2022/03/16 02:36:38;;;;;;;20.13;12.40;;;4.50;76.80;;;;;;5013966;28;20490;-53
2022/03/16 02:39:05;;;;;;;16.53;11.47;;;4.50;99.90;;;;;;5006650;28;20483;-55
2022/03/16 02:41:33;;;;;;;14.80;12.40;;;4.40;78.00;;;;;;5008162;28;20483;-53
2022/03/16 02:44:00;;;;;;;18.83;12.97;;;4.30;21.10;;;;;;5013132;28;20463;-53
2022/03/16 02:46:26;;;;;;;15.30;11.73;;;4.30;21.40;;;;;;5012009;28;20463;-53
2022/03/16 02:48:53;;;;;;;18.67;12.40;;;4.20;21.30;;;;;;5011982;28;20482;-53
2022/03/16 02:51:19;;;;;;;16.37;12.33;;;4.10;99.90;;;;;;5008016;28;20491;-53
2022/03/16 02:53:46;;;;;;;20.13;12.40;;;4.10;99.90;;;;;;5008880;28;20583;-53
2022/03/16 02:56:13;;;;;;;17.97;12.00;;;4.00;99.90;;;;;;5013683;28;20464;-52
2022/03/16 02:58:41;;;;;;;16.00;12.73;;;4.00;99.90;;;;;;5012203;28;20464;-53
2022/03/16 03:01:07;;;;;;;13.93;11.30;;;3.90;99.90;;;;;;5007711;28;20534;-53
2022/03/16 03:03:34;;;;;;;15.33;11.90;;;3.90;99.90;;;;;;5013235;28;20464;-53
2022/03/16 03:06:00;;;;;;;21.00;13.60;;;3.80;99.90;;;;;;5011935;28;20945;-52
2022/03/16 03:08:27;;;;;;;45.60;24.80;;;3.80;99.90;;;;;;5013727;28;20479;-52
2022/03/16 03:10:54;;;;;;;34.60;19.37;;;3.70;99.90;;;;;;5010362;28;20483;-53
2022/03/16 03:13:20;;;;;;;30.57;17.37;;;3.70;99.90;;;;;;5013747;28;20803;-53
2022/03/16 03:15:48;;;;;;;27.60;14.17;;;3.60;99.90;;;;;;5011970;28;20530;-52
2022/03/16 03:18:15;;;;;;;22.67;15.10;;;3.60;99.90;;;;;;5010787;28;20463;-53
2022/03/16 03:20:41;;;;;;;26.83;14.17;;;3.60;99.90;;;;;;5012443;28;20886;-53
2022/03/16 03:23:08;;;;;;;23.87;14.50;;;3.50;99.90;;;;;;5007162;28;20856;-53
2022/03/16 03:25:34;;;;;;;16.97;13.47;;;3.40;99.90;;;;;;5011957;28;20518;-53
2022/03/16 03:28:01;;;;;;;18.20;12.50;;;3.40;99.90;;;;;;5009689;28;20464;-53
2022/03/16 03:30:28;;;;;;;21.80;13.70;;;3.40;99.90;;;;;;5011873;28;20514;-53
2022/03/16 03:32:56;;;;;;;17.27;11.93;;;3.40;99.90;;;;;;5010748;28;20856;-52
2022/03/16 03:35:22;;;;;;;22.30;13.30;;;3.40;99.90;;;;;;5010511;28;20467;-53
2022/03/16 03:37:51;;;;;;;15.50;12.30;;;3.30;99.90;;;;;;5010807;28;21482;-53
2022/03/16 03:40:17;;;;;;;19.17;13.40;;;3.20;99.90;;;;;;5011296;28;20472;-53
2022/03/16 03:42:44;;;;;;;23.43;15.10;;;3.20;99.90;;;;;;5013827;28;20550;-53
2022/03/16 03:45:10;;;;;;;24.30;14.73;;;3.10;99.90;;;;;;5006984;28;20887;-53
2022/03/16 03:47:37;;;;;;;26.20;13.60;;;3.10;99.90;;;;;;5009558;28;20499;-53
2022/03/16 03:50:06;;;;;;;18.13;12.50;;;3.00;99.90;;;;;;5011720;28;20521;-53
2022/03/16 03:52:32;;;;;;;22.67;13.77;;;3.00;99.90;;;;;;5015635;28;20518;-53
2022/03/16 03:54:59;;;;;;;23.13;13.73;;;2.90;99.90;;;;;;5015377;28;20485;-53
2022/03/16 03:57:25;;;;;;;23.13;13.90;;;2.90;99.90;;;;;;5012012;28;20510;-53
2022/03/16 03:59:52;;;;;;;20.40;14.00;;;2.90;99.90;;;;;;5010957;28;20559;-52
2022/03/16 04:02:19;;;;;;;17.90;12.73;;;2.80;99.90;;;;;;5010292;28;20515;-53
2022/03/16 04:04:45;;;;;;;17.77;12.80;;;2.80;99.90;;;;;;5012005;28;20876;-54
2022/03/16 04:07:13;;;;;;;25.23;14.53;;;2.80;99.90;;;;;;5011092;28;20541;-53
2022/03/16 04:09:40;;;;;;;25.53;13.30;;;2.80;99.90;;;;;;5010761;28;20464;-52
2022/03/16 04:12:08;;;;;;;22.80;12.50;;;2.70;99.90;;;;;;5012066;28;20537;-54
2022/03/16 04:14:35;;;;;;;20.33;13.57;;;2.80;99.90;;;;;;5011728;28;20514;-52
2022/03/16 04:17:01;;;;;;;15.70;12.23;;;2.80;99.90;;;;;;5011653;28;21011;-53
2022/03/16 04:19:28;;;;;;;16.87;12.73;;;2.70;99.90;;;;;;5009407;28;20860;-53
2022/03/16 04:21:54;;;;;;;21.43;13.40;;;2.80;99.90;;;;;;5011498;28;20545;-53
2022/03/16 04:24:22;;;;;;;20.73;13.70;;;2.70;99.90;;;;;;5011633;28;20462;-53
2022/03/16 04:26:49;;;;;;;15.10;11.73;;;2.70;99.90;;;;;;5011139;28;20554;-53
2022/03/16 04:29:15;;;;;;;18.70;12.27;;;2.70;99.90;;;;;;5007841;28;20518;-53
2022/03/16 04:31:42;;;;;;;17.20;12.60;;;2.70;99.90;;;;;;5010822;28;20467;-53
2022/03/16 04:34:09;;;;;;;17.53;12.53;;;2.60;99.90;;;;;;5009684;28;20460;-52
2022/03/16 04:36:35;;;;;;;18.30;13.57;;;2.50;99.90;;;;;;5011698;28;20451;-53
2022/03/16 04:39:02;;;;;;;19.07;12.20;;;2.50;99.90;;;;;;5009960;28;20460;-53
2022/03/16 04:41:30;;;;;;;16.50;13.10;;;2.50;99.90;;;;;;5006854;28;20489;-53
2022/03/16 04:43:57;;;;;;;19.47;12.93;;;2.50;99.90;;;;;;5010433;28;20452;-53
2022/03/16 04:46:23;;;;;;;18.53;12.73;;;2.40;99.90;;;;;;5009725;28;20463;-53
2022/03/16 04:48:50;;;;;;;17.13;11.90;;;2.30;99.90;;;;;;5001165;28;20460;-52
2022/03/16 04:51:16;;;;;;;16.80;12.23;;;2.30;99.90;;;;;;5011414;28;20495;-53
2022/03/16 04:53:43;;;;;;;18.40;14.03;;;2.30;99.90;;;;;;5007876;28;21027;-53
2022/03/16 04:56:10;;;;;;;15.13;11.70;;;2.40;99.90;;;;;;5010664;28;20456;-52
2022/03/16 04:58:38;;;;;;;19.93;13.40;;;2.40;99.90;;;;;;5010423;28;21198;-54
2022/03/16 05:01:04;;;;;;;18.40;12.87;;;2.40;99.90;;;;;;5010507;28;20906;-54
2022/03/16 05:03:31;;;;;;;18.03;12.77;;;2.30;99.90;;;;;;5010235;28;20487;-54
2022/03/16 05:05:58;;;;;;;19.17;14.17;;;2.30;99.90;;;;;;5010927;28;20460;-53
2022/03/16 05:08:25;;;;;;;20.83;14.90;;;2.30;99.90;;;;;;5010525;28;20464;-54
2022/03/16 05:10:51;;;;;;;16.80;13.37;;;2.30;99.90;;;;;;5009524;28;21043;-53
2022/03/16 05:13:18;;;;;;;26.97;14.77;;;2.40;99.90;;;;;;5006652;28;20545;-53
2022/03/16 05:15:47;;;;;;;26.70;13.63;;;2.40;99.90;;;;;;5008196;28;20467;-52
2022/03/16 05:18:14;;;;;;;17.10;14.07;;;2.40;99.90;;;;;;5010455;28;20543;-52
2022/03/16 05:20:41;;;;;;;20.20;13.00;;;2.50;99.90;;;;;;5011084;28;20499;-53
2022/03/16 05:23:07;;;;;;;28.20;14.33;;;2.50;99.90;;;;;;5009419;28;20480;-53
2022/03/16 05:25:35;;;;;;;19.73;15.43;;;2.50;99.90;;;;;;5008820;28;20480;-53
2022/03/16 05:28:02;;;;;;;25.50;14.67;;;2.50;99.90;;;;;;5008799;28;20460;-53
2022/03/16 05:30:29;;;;;;;25.97;17.73;;;2.40;99.90;;;;;;5004326;28;20499;-52
2022/03/16 05:33:00;;;;;;;23.87;16.20;;;2.40;99.90;;;;;;5007843;28;20479;-53
2022/03/16 05:35:27;;;;;;;25.00;17.30;;;2.20;99.90;;;;;;5008657;28;20470;-49
2022/03/16 05:37:54;;;;;;;32.77;21.50;;;2.20;99.90;;;;;;5001760;28;20467;-48
2022/03/16 05:40:21;;;;;;;40.33;20.70;;;2.20;99.90;;;;;;5009514;28;20464;-47
2022/03/16 05:42:48;;;;;;;27.90;18.43;;;2.20;99.90;;;;;;5008441;28;20483;-47
2022/03/16 05:45:14;;;;;;;21.20;16.47;;;2.20;99.90;;;;;;5009370;28;21015;-48
2022/03/16 05:47:41;;;;;;;17.40;13.50;;;2.30;99.90;;;;;;5008799;28;20470;-48
2022/03/16 05:50:09;;;;;;;22.40;15.00;;;2.30;99.90;;;;;;5007773;28;20887;-46
2022/03/16 05:52:36;;;;;;;20.27;15.37;;;2.30;99.90;;;;;;5010951;28;20471;-47
2022/03/16 05:55:05;;;;;;;17.37;13.60;;;2.30;99.90;;;;;;5012132;28;20486;-47
2022/03/16 05:57:32;;;;;;;45.57;31.77;;;2.30;99.90;;;;;;5005620;28;20476;-48
2022/03/16 05:59:58;;;;;;;77.23;50.37;;;2.40;99.90;;;;;;5013184;28;20455;-47
2022/03/16 06:02:25;;;;;;;55.70;36.50;;;2.60;99.90;;;;;;5013067;28;20515;-48
2022/03/16 06:04:51;;;;;;;30.47;23.13;;;2.70;99.90;;;;;;5013712;28;20806;-47
2022/03/16 06:07:19;;;;;;;23.37;18.70;;;2.90;99.90;;;;;;5014042;28;20498;-47
2022/03/16 06:09:47;;;;;;;25.33;17.40;;;3.00;99.90;;;;;;5009305;28;20599;-48
2022/03/16 06:12:14;;;;;;;23.60;17.53;;;3.20;99.90;;;;;;5019793;28;20514;-50
2022/03/16 06:14:40;;;;;;;21.17;16.63;;;3.30;99.90;;;;;;5015907;28;20468;-48
2022/03/16 06:17:07;;;;;;;19.33;15.47;;;3.40;99.90;;;;;;5017507;28;20494;-49
2022/03/16 06:19:34;;;;;;;17.87;14.70;;;3.40;99.90;;;;;;5020135;28;20463;-48
2022/03/16 06:22:01;;;;;;;14.57;12.80;;;3.40;99.90;;;;;;5015370;28;20483;-48
2022/03/16 06:24:29;;;;;;;17.73;12.93;;;3.50;99.90;;;;;;5009921;28;20451;-48
2022/03/16 06:26:55;;;;;;;12.57;11.30;;;3.50;99.90;;;;;;5013471;28;20562;-48
2022/03/16 06:29:22;;;;;;;12.50;11.30;;;3.50;99.90;;;;;;5013519;28;20513;-48
2022/03/16 06:31:49;;;;;;;11.27;10.27;;;3.50;99.90;;;;;;5012148;28;20502;-48
2022/03/16 06:34:16;;;;;;;11.90;10.70;;;3.50;99.90;;;;;;5005255;28;20457;-48
2022/03/16 06:36:42;;;;;;;11.77;10.37;;;3.50;99.90;;;;;;5009027;28;20455;-48
2022/03/16 06:39:09;;;;;;;10.57;9.57;;;3.50;99.90;;;;;;5007867;28;20907;-47
2022/03/16 06:41:37;;;;;;;10.47;9.57;;;3.50;99.90;;;;;;5006175;28;20487;-48
2022/03/16 06:44:04;;;;;;;10.70;9.70;;;3.50;99.90;;;;;;5012913;28;20896;-48
2022/03/16 06:46:31;;;;;;;11.67;10.50;;;3.60;99.90;;;;;;5007105;28;20468;-47
2022/03/16 06:48:58;;;;;;;11.87;10.53;;;3.70;99.90;;;;;;5009372;28;20467;-47
2022/03/16 06:51:25;;;;;;;13.70;9.90;;;3.70;99.90;;;;;;5008933;28;20490;-47
2022/03/16 06:53:51;;;;;;;11.07;10.07;;;3.70;99.90;;;;;;5009086;28;20483;-47
2022/03/16 06:56:18;;;;;;;11.33;10.33;;;3.70;99.90;;;;;;5009761;28;20961;-47
2022/03/16 06:58:46;;;;;;;11.97;10.67;;;3.70;99.90;;;;;;5013556;28;20517;-47
2022/03/16 07:01:13;;;;;;;13.00;11.80;;;3.80;99.90;;;;;;5010635;28;20479;-47
2022/03/16 07:03:39;;;;;;;11.60;10.43;;;3.90;99.90;;;;;;5012216;28;21013;-48
2022/03/16 07:06:08;;;;;;;11.67;10.47;;;4.00;99.90;;;;;;5011099;28;20467;-47
2022/03/16 07:08:35;;;;;;;12.27;10.97;;;4.00;99.90;;;;;;5010266;28;20459;-46
2022/03/16 07:11:01;;;;;;;11.83;10.63;;;4.00;99.90;;;;;;5013052;28;20915;-48
2022/03/16 07:13:28;;;;;;;12.20;11.00;;;4.00;99.90;;;;;;5011175;28;20459;-47
2022/03/16 07:15:56;;;;;;;11.47;10.43;;;4.10;99.90;;;;;;5009046;28;20488;-47
2022/03/16 07:18:23;;;;;;;13.17;11.73;;;4.10;99.90;;;;;;5010471;28;21018;-46
2022/03/16 07:20:50;;;;;;;13.63;12.27;;;4.20;99.90;;;;;;5008235;28;20496;-48
2022/03/16 07:23:18;;;;;;;13.07;11.70;;;4.30;99.90;;;;;;5002445;28;20557;-48
2022/03/16 07:25:46;;;;;;;12.17;10.97;;;4.30;99.90;;;;;;5004468;28;20472;-47
2022/03/16 07:28:14;;;;;;;12.10;10.90;;;4.30;99.90;;;;;;4998032;28;20549;-47
2022/03/16 07:30:41;;;;;;;11.50;10.30;;;4.30;99.90;;;;;;5004589;28;20492;-47
2022/03/16 07:33:10;;;;;;;12.20;11.00;;;4.20;99.90;;;;;;5006947;28;20543;-47
2022/03/16 07:35:38;;;;;;;13.43;11.20;;;4.30;99.90;;;;;;5004084;28;20464;-48
2022/03/16 07:38:06;;;;;;;12.30;11.00;;;4.40;99.90;;;;;;5005237;28;20475;-48
2022/03/16 07:40:35;;;;;;;13.80;12.00;;;4.50;99.90;;;;;;5006410;28;20533;-47
2022/03/16 07:43:01;;;;;;;12.20;11.07;;;4.60;99.90;;;;;;5008440;28;20495;-47
2022/03/16 07:45:28;;;;;;;12.67;11.33;;;4.70;99.90;;;;;;5008612;28;20881;-47
2022/03/16 07:47:56;;;;;;;13.03;11.20;;;4.60;99.90;;;;;;4999825;28;20901;-49
2022/03/16 07:50:24;;;;;;;12.80;11.50;;;4.40;99.90;;;;;;5001554;28;20465;-48
2022/03/16 07:52:51;;;;;;;14.17;12.17;;;4.40;99.90;;;;;;5006638;23;20496;-53
2022/03/16 07:55:17;;;;;;;13.00;11.70;;;4.40;99.90;;;;;;4986646;28;20468;-52
2022/03/16 07:57:44;;;;;;;13.33;11.50;;;4.50;99.90;;;;;;4981148;28;20543;-52
2022/03/16 08:00:12;;;;;;;13.00;11.27;;;4.60;99.90;;;;;;4990417;28;20460;-51
2022/03/16 08:02:39;;;;;;;12.00;10.80;;;4.80;99.90;;;;;;4973695;28;20597;-51
2022/03/16 08:05:07;;;;;;;12.70;11.40;;;4.80;99.90;;;;;;4968899;28;20882;-51
2022/03/16 08:07:36;;;;;;;17.27;10.43;;;5.10;99.90;;;;;;4973960;28;20528;-51
2022/03/16 08:10:03;;;;;;;12.00;10.80;;;5.10;99.90;;;;;;4972614;28;20461;-51
2022/03/16 08:12:30;;;;;;;11.97;10.53;;;5.20;99.90;;;;;;4967284;28;20595;-51
2022/03/16 08:14:57;;;;;;;21.03;11.10;;;5.10;99.90;;;;;;4967673;28;20466;-52
2022/03/16 08:17:24;;;;;;;11.87;10.67;;;5.10;99.90;;;;;;4969974;28;21009;-52
2022/03/16 08:19:50;;;;;;;12.17;10.97;;;5.10;99.90;;;;;;4964870;28;20461;-52
2022/03/16 08:22:26;;;;;;;13.13;10.50;;;5.20;99.90;;;;;;4968015;28;20558;-52
2022/03/16 08:24:54;;;;;;;12.10;10.77;;;5.20;99.90;;;;;;4967177;28;20994;-52
2022/03/16 08:27:21;;;;;;;11.10;10.00;;;5.20;99.90;;;;;;4965184;28;20524;-52
2022/03/16 08:29:47;;;;;;;12.10;9.50;;;5.30;99.90;;;;;;4963093;28;20501;-52
2022/03/16 08:32:14;;;;;;;17.70;11.50;;;5.40;99.90;;;;;;4971653;28;20481;-51
2022/03/16 08:34:41;;;;;;;12.17;10.87;;;5.30;99.90;;;;;;4968560;28;20458;-51
2022/03/16 08:37:07;;;;;;;13.20;10.60;;;5.40;99.90;;;;;;4967535;28;21111;-51
2022/03/16 08:39:34;;;;;;;12.27;10.00;;;5.40;99.90;;;;;;4972699;28;21029;-52
2022/03/16 08:42:02;;;;;;;10.67;9.57;;;5.40;99.90;;;;;;4972520;28;20486;-51
2022/03/16 08:44:28;;;;;;;11.03;9.93;;;5.50;99.90;;;;;;4973227;28;20522;-52
2022/03/16 08:46:55;;;;;;;12.37;10.17;;;5.40;99.90;;;;;;4970837;28;20461;-52
2022/03/16 08:49:22;;;;;;;11.30;8.97;;;5.40;99.90;;;;;;4968165;28;20469;-51
2022/03/16 08:51:49;;;;;;;13.30;10.57;;;5.40;99.90;;;;;;4973240;28;20474;-52
2022/03/16 08:54:16;;;;;;;10.63;9.53;;;5.40;99.90;;;;;;4970243;28;20810;-52
2022/03/16 08:56:43;;;;;;;12.73;11.27;;;5.50;99.90;;;;;;4970840;28;20475;-52
2022/03/16 08:59:11;;;;;;;12.57;11.17;;;5.70;99.90;;;;;;4971552;28;21033;-51
2022/03/16 09:01:38;;;;;;;23.07;10.47;;;5.70;99.90;;;;;;4972690;28;20600;-52
2022/03/16 09:04:05;;;;;;;10.83;9.63;;;5.80;99.90;;;;;;4972601;28;20543;-52
2022/03/16 09:06:31;;;;;;;13.00;9.90;;;5.90;99.90;;;;;;4972130;28;20547;-51
2022/03/16 09:08:58;;;;;;;10.70;9.60;;;5.80;99.90;;;;;;4970238;28;20548;-52
2022/03/16 09:11:25;;;;;;;9.33;8.43;;;5.90;99.90;;;;;;4971255;28;20850;-52
2022/03/16 09:13:51;;;;;;;12.33;9.57;;;6.00;99.00;;;;;;4969138;28;20465;-51
2022/03/16 09:16:19;;;;;;;9.40;8.50;;;5.90;25.00;;;;;;4972865;28;20445;-52
2022/03/16 09:18:47;;;;;;;9.80;8.80;;;6.00;99.90;;;;;;4972242;28;20488;-51
2022/03/16 09:21:13;;;;;;;11.10;10.00;;;5.90;22.40;;;;;;4972037;28;20468;-52
2022/03/16 09:23:40;;;;;;;10.07;9.07;;;6.10;99.90;;;;;;4968726;28;20551;-51
2022/03/16 09:26:07;;;;;;;10.30;9.30;;;6.30;99.90;;;;;;4975927;28;20465;-52
2022/03/16 09:28:34;;;;;;;11.07;9.50;;;6.40;20.20;;;;;;4971818;28;20466;-52
2022/03/16 09:31:01;;;;;;;22.17;9.67;;;6.40;54.50;;;;;;4971860;28;20512;-52
2022/03/16 09:33:30;;;;;;;11.30;9.40;;;6.60;48.50;;;;;;4970346;28;20544;-52
2022/03/16 09:35:57;;;;;;;10.70;8.60;;;6.60;63.90;;;;;;4966821;28;20990;-52
2022/03/16 09:38:24;;;;;;;12.07;8.93;;;6.70;87.10;;;;;;4968927;28;20520;-52
2022/03/16 09:40:53;;;;;;;10.47;9.40;;;6.80;73.10;;;;;;4964984;28;20803;-52
2022/03/16 09:43:23;;;;;;;10.80;9.37;;;6.80;78.60;;;;;;4970977;28;20515;-52
2022/03/16 09:45:55;;;;;;;10.93;9.00;;;6.80;90.40;;;;;;4967519;28;20552;-52
2022/03/16 09:48:23;;;;;;;9.30;8.37;;;6.30;87.40;;;;;;4968000;28;20457;-51
2022/03/16 09:50:51;;;;;;;22.40;8.53;;;6.60;65.30;;;;;;4964661;28;20500;-52
2022/03/16 09:53:19;;;;;;;9.97;9.00;;;6.80;62.50;;;;;;4971515;28;20480;-52
2022/03/16 09:55:46;;;;;;;9.73;8.83;;;6.90;81.70;;;;;;4972581;28;20469;-51
2022/03/16 09:58:13;;;;;;;10.37;9.30;;;7.10;86.50;;;;;;4966085;28;20489;-52
2022/03/16 10:00:39;;;;;;;9.50;8.70;;;7.20;80.70;;;;;;4970606;28;20504;-51
2022/03/16 10:03:06;;;;;;;9.30;8.40;;;7.10;99.90;;;;;;4964607;28;20516;-52
2022/03/16 10:05:33;;;;;;;12.40;8.77;;;7.30;99.90;;;;;;4969668;28;21159;-52
2022/03/16 10:08:02;;;;;;;10.23;9.10;;;7.30;99.90;;;;;;4971780;28;20442;-51
2022/03/16 10:13:17;;;;;;;10.57;9.43;;;7.50;99.90;;;;;;4969655;28;20523;-51
2022/03/16 10:15:43;;;;;;;10.20;9.30;;;7.30;99.90;;;;;;4971087;28;20457;-51
2022/03/16 10:18:10;;;;;;;10.90;9.83;;;7.10;99.90;;;;;;4972062;28;20461;-52
2022/03/16 10:20:39;;;;;;;11.50;10.40;;;7.10;90.70;;;;;;4971825;28;20461;-52
2022/03/16 10:23:10;;;;;;;11.90;10.80;;;7.40;88.80;;;;;;4971442;28;20483;-52
2022/03/16 10:25:39;;;;;;;12.37;10.43;;;7.70;99.90;;;;;;4969009;28;21009;-52
2022/03/16 10:28:11;;;;;;;11.30;9.47;;;7.90;99.90;;;;;;4972240;28;20453;-52
2022/03/16 10:30:52;;;;;;;9.97;9.07;;;8.10;99.90;;;;;;4971711;28;20516;-51
2022/03/16 10:33:20;;;;;;;11.53;10.33;;;8.40;99.90;;;;;;4970797;28;20994;-51
2022/03/16 10:35:57;;;;;;;9.60;8.63;;;8.60;99.90;;;;;;4971099;28;20469;-51
2022/03/16 10:38:26;;;;;;;11.63;9.70;;;8.80;99.90;;;;;;4966260;28;20465;-51
2022/03/16 10:40:54;;;;;;;10.27;9.27;;;8.80;99.90;;;;;;4958089;28;20465;-51
2022/03/16 10:49:00;;;;;;;9.03;8.23;;;10.10;98.10;;;;;;4967885;28;20452;-51
2022/03/16 10:51:27;;;;;;;10.23;8.63;;;10.20;20.90;;;;;;4974935;28;20496;-51
2022/03/16 10:53:56;;;;;;;8.67;7.70;;;10.30;37.20;;;;;;4969963;28;20546;-52
2022/03/16 10:56:24;;;;;;;10.03;8.50;;;9.70;23.50;;;;;;4971939;28;20471;-51
2022/03/16 10:58:53;;;;;;;7.80;7.10;;;9.70;24.80;;;;;;4968740;28;20461;-52
2022/03/16 11:01:20;;;;;;;11.57;9.17;;;9.80;20.40;;;;;;4974739;28;20475;-51
2022/03/16 11:03:49;;;;;;;9.00;8.20;;;9.50;28.00;;;;;;4973605;28;20828;-52
2022/03/16 11:06:18;;;;;;;8.60;7.73;;;9.80;86.80;;;;;;4974277;28;20465;-52
2022/03/16 11:08:45;;;;;;;9.77;8.50;;;9.90;99.90;;;;;;4971711;28;20560;-52
2022/03/16 11:13:59;;;;;;;11.17;9.90;;;9.90;34.70;;;;;;4972757;28;20608;-51
2022/03/16 11:16:26;;;;;;;9.50;8.60;;;9.80;99.90;;;;;;4979315;28;20507;-52
2022/03/16 11:18:53;;;;;;;11.60;7.80;;;10.00;20.80;;;;;;4965839;28;20808;-52
2022/03/16 11:21:26;;;;;;;8.70;7.80;;;10.70;35.00;;;;;;4968012;28;20558;-52
2022/03/16 11:26:54;;;;;;;10.00;7.80;;;11.40;63.70;;;;;;4971671;28;20448;-52
2022/03/16 11:29:33;;;;;;;9.30;7.80;;;10.90;60.40;;;;;;4971319;28;20840;-52
2022/03/16 11:32:09;;;;;;;10.70;9.60;;;11.00;63.10;;;;;;4971346;28;20483;-52
2022/03/16 11:34:36;;;;;;;7.77;7.00;;;11.10;59.60;;;;;;4972042;28;20967;-52
2022/03/16 11:37:05;;;;;;;8.30;7.60;;;10.50;54.40;;;;;;4972742;28;20458;-52
2022/03/16 11:39:41;;;;;;;8.90;8.10;;;10.70;51.10;;;;;;4973437;28;20513;-52
2022/03/16 11:42:11;;;;;;;6.57;6.07;;;10.80;49.60;;;;;;4972945;28;20596;-52
2022/03/16 11:44:39;;;;;;;6.60;6.00;;;11.10;58.50;;;;;;4977498;28;20474;-52
2022/03/16 11:47:32;;;;;;;8.93;6.17;;;11.30;66.10;;;;;;4974165;28;20966;-52
2022/03/16 11:50:14;;;;;;;6.10;5.53;;;10.80;53.00;;;;;;4974319;28;20512;-52
2022/03/16 11:53:04;;;;;;;8.27;6.70;;;11.20;60.50;;;;;;4979862;28;20532;-52
2022/03/16 11:55:48;;;;;;;6.23;5.63;;;11.10;61.30;;;;;;4966787;28;20504;-52
2022/03/16 11:58:28;;;;;;;6.33;5.83;;;11.30;64.90;;;;;;4965473;28;20462;-52
2022/03/16 12:01:23;;;;;;;6.50;5.40;;;11.40;66.50;;;;;;4967838;28;20461;-52
2022/03/16 12:03:58;;;;;;;8.60;5.10;;;11.40;70.00;;;;;;4967043;28;20549;-52
2022/03/16 12:06:29;;;;;;;6.93;6.33;;;11.50;74.20;;;;;;4965721;28;20556;-52
2022/03/16 12:09:02;;;;;;;6.77;6.17;;;11.50;67.10;;;;;;4966449;28;20463;-51
2022/03/16 12:15:14;;;;;;;7.27;6.43;;;11.00;73.20;;;;;;4970348;28;20496;-52
2022/03/16 12:17:42;;;;;;;7.07;6.43;;;11.50;69.30;;;;;;4969550;28;20484;-52
2022/03/16 12:20:15;;;;;;;6.90;6.30;;;11.70;76.40;;;;;;4966578;28;20512;-52
2022/03/16 12:22:45;;;;;;;7.47;6.67;;;11.60;81.40;;;;;;4972200;28;20476;-51
2022/03/16 12:25:31;;;;;;;6.27;5.67;;;11.80;87.00;;;;;;4971205;28;20496;-52
2022/03/16 12:30:47;;;;;;;9.50;6.97;;;11.60;85.60;;;;;;4972703;28;20481;-51
2022/03/16 12:33:16;;;;;;;6.80;6.20;;;11.90;80.60;;;;;;4971482;28;20489;-51
2022/03/16 12:35:43;;;;;;;9.83;7.80;;;12.40;83.20;;;;;;4965790;28;20975;-52
2022/03/16 12:38:11;;;;;;;12.70;7.00;;;12.30;96.40;;;;;;4974700;28;20470;-52
2022/03/16 12:42:30;;;;;;;7.30;6.60;;;12.30;95.90;;;;;;4965450;28;20959;-52
2022/03/16 12:43:27;;;;;;;11.43;7.03;;;12.30;95.10;;;;;;4964671;28;20470;-52
2022/03/16 12:46:01;;;;;;;8.30;6.20;;;12.80;95.40;;;;;;4972548;28;20521;-52
2022/03/16 12:48:33;;;;;;;11.30;7.57;;;13.10;99.90;;;;;;4972851;28;20457;-52
2022/03/16 12:51:00;;;;;;;11.50;7.30;;;13.00;99.90;;;;;;4968477;28;20457;-52
2022/03/16 12:53:44;;;;;;;8.10;7.30;;;12.90;99.90;;;;;;4970252;28;20547;-52
2022/03/16 12:56:12;;;;;;;7.83;7.03;;;13.00;99.90;;;;;;4970897;28;20461;-52
2022/03/16 12:58:39;;;;;;;11.03;7.30;;;13.20;99.90;;;;;;4972206;28;20457;-52
2022/03/16 13:01:07;;;;;;;9.53;8.17;;;12.70;99.90;;;;;;4970705;28;20809;-53
2022/03/16 13:03:33;;;;;;;8.40;7.60;;;12.40;99.90;;;;;;4972624;28;20485;-53
2022/03/16 13:06:00;;;;;;;8.30;7.57;;;13.00;99.90;;;;;;4977022;28;20540;-52